sensor_id;sensor_type;location;lat;lon;timestamp;temperature;humidity
52849;DHT22;38714;53.180;5.812;2023-07-24T00:00:30;17.60;99.90
52849;DHT22;38714;53.180;5.812;2023-07-24T00:02:55;17.60;99.90
52849;DHT22;38714;53.180;5.812;2023-07-24T00:05:21;17.60;99.90
52849;DHT22;38714;53.180;5.812;2023-07-24T00:07:47;17.50;99.90
52849;DHT22;38714;53.180;5.812;2023-07-24T00:10:12;17.50;99.90
52849;DHT22;38714;53.180;5.812;2023-07-24T00:12:38;17.50;99.90
52849;DHT22;38714;53.180;5.812;2023-07-24T00:15:04;17.50;99.90
52849;DHT22;38714;53.180;5.812;2023-07-24T00:17:30;17.50;99.90
52849;DHT22;38714;53.180;5.812;2023-07-24T00:19:56;17.50;99.90
52849;DHT22;38714;53.180;5.812;2023-07-24T00:22:21;17.50;99.90
52849;DHT22;38714;53.180;5.812;2023-07-24T00:24:47;17.50;99.90
52849;DHT22;38714;53.180;5.812;2023-07-24T00:27:13;17.40;99.90
52849;DHT22;38714;53.180;5.812;2023-07-24T00:29:39;17.40;99.90
52849;DHT22;38714;53.180;5.812;2023-07-24T00:32:05;17.40;99.90
52849;DHT22;38714;53.180;5.812;2023-07-24T00:34:31;17.40;99.90
52849;DHT22;38714;53.180;5.812;2023-07-24T00:36:56;17.40;99.90
52849;DHT22;38714;53.180;5.812;2023-07-24T00:39:22;17.40;99.90
52849;DHT22;38714;53.180;5.812;2023-07-24T00:41:48;17.40;99.90
52849;DHT22;38714;53.180;5.812;2023-07-24T00:44:13;17.40;99.90
52849;DHT22;38714;53.180;5.812;2023-07-24T00:46:39;17.30;99.90
52849;DHT22;38714;53.180;5.812;2023-07-24T00:49:05;17.30;99.90
52849;DHT22;38714;53.180;5.812;2023-07-24T00:51:31;17.30;99.90
52849;DHT22;38714;53.180;5.812;2023-07-24T00:54:00;17.30;99.90
52849;DHT22;38714;53.180;5.812;2023-07-24T00:56:26;17.30;99.90
52849;DHT22;38714;53.180;5.812;2023-07-24T00:58:54;17.30;99.90
52849;DHT22;38714;53.180;5.812;2023-07-24T01:01:21;17.20;99.90
52849;DHT22;38714;53.180;5.812;2023-07-24T01:03:47;17.10;99.90
52849;DHT22;38714;53.180;5.812;2023-07-24T01:06:14;17.10;99.90
52849;DHT22;38714;53.180;5.812;2023-07-24T01:08:40;17.10;99.90
52849;DHT22;38714;53.180;5.812;2023-07-24T01:11:15;17.10;99.90
52849;DHT22;38714;53.180;5.812;2023-07-24T01:13:47;17.10;99.90
52849;DHT22;38714;53.180;5.812;2023-07-24T01:16:19;17.10;99.90
52849;DHT22;38714;53.180;5.812;2023-07-24T01:18:47;17.10;99.90
52849;DHT22;38714;53.180;5.812;2023-07-24T01:21:15;17.00;99.90
52849;DHT22;38714;53.180;5.812;2023-07-24T01:24:09;17.10;99.90
52849;DHT22;38714;53.180;5.812;2023-07-24T01:26:40;17.00;99.90
52849;DHT22;38714;53.180;5.812;2023-07-24T01:29:05;17.00;99.90
52849;DHT22;38714;53.180;5.812;2023-07-24T01:31:31;17.10;99.90
52849;DHT22;38714;53.180;5.812;2023-07-24T01:33:57;17.00;99.90
52849;DHT22;38714;53.180;5.812;2023-07-24T01:36:23;17.10;99.90
52849;DHT22;38714;53.180;5.812;2023-07-24T01:38:50;17.10;99.90
52849;DHT22;38714;53.180;5.812;2023-07-24T01:41:16;17.10;99.90
52849;DHT22;38714;53.180;5.812;2023-07-24T01:43:43;17.10;99.90
52849;DHT22;38714;53.180;5.812;2023-07-24T01:46:08;17.10;99.90
52849;DHT22;38714;53.180;5.812;2023-07-24T01:48:34;17.10;99.90
52849;DHT22;38714;53.180;5.812;2023-07-24T01:51:00;17.10;99.90
52849;DHT22;38714;53.180;5.812;2023-07-24T01:53:25;17.10;99.90
52849;DHT22;38714;53.180;5.812;2023-07-24T01:55:51;17.10;99.90
52849;DHT22;38714;53.180;5.812;2023-07-24T01:58:16;17.10;99.90
52849;DHT22;38714;53.180;5.812;2023-07-24T02:00:43;17.10;99.90
52849;DHT22;38714;53.180;5.812;2023-07-24T02:03:08;17.10;99.90
52849;DHT22;38714;53.180;5.812;2023-07-24T02:05:34;17.20;99.90
52849;DHT22;38714;53.180;5.812;2023-07-24T02:08:01;17.20;99.90
52849;DHT22;38714;53.180;5.812;2023-07-24T02:10:26;17.20;99.90
52849;DHT22;38714;53.180;5.812;2023-07-24T02:12:52;17.20;99.90
52849;DHT22;38714;53.180;5.812;2023-07-24T02:15:17;17.20;99.90
52849;DHT22;38714;53.180;5.812;2023-07-24T02:17:43;17.20;99.90
52849;DHT22;38714;53.180;5.812;2023-07-24T02:20:09;17.20;99.90
52849;DHT22;38714;53.180;5.812;2023-07-24T02:22:34;17.20;99.90
52849;DHT22;38714;53.180;5.812;2023-07-24T02:25:01;17.20;99.90
52849;DHT22;38714;53.180;5.812;2023-07-24T02:27:28;17.20;99.90
52849;DHT22;38714;53.180;5.812;2023-07-24T02:29:54;17.20;99.90
52849;DHT22;38714;53.180;5.812;2023-07-24T02:32:20;17.20;99.90
52849;DHT22;38714;53.180;5.812;2023-07-24T02:34:49;17.20;99.90
52849;DHT22;38714;53.180;5.812;2023-07-24T02:37:15;17.20;99.90
52849;DHT22;38714;53.180;5.812;2023-07-24T02:39:40;17.20;99.90
52849;DHT22;38714;53.180;5.812;2023-07-24T02:42:06;17.20;99.90
52849;DHT22;38714;53.180;5.812;2023-07-24T02:44:35;17.20;99.90
52849;DHT22;38714;53.180;5.812;2023-07-24T02:47:01;17.20;99.90
52849;DHT22;38714;53.180;5.812;2023-07-24T02:49:28;17.20;99.90
52849;DHT22;38714;53.180;5.812;2023-07-24T02:51:53;17.20;99.90
52849;DHT22;38714;53.180;5.812;2023-07-24T02:54:19;17.20;99.90
52849;DHT22;38714;53.180;5.812;2023-07-24T02:56:45;17.20;99.90
52849;DHT22;38714;53.180;5.812;2023-07-24T02:59:10;17.20;99.90
52849;DHT22;38714;53.180;5.812;2023-07-24T03:01:37;17.20;99.90
52849;DHT22;38714;53.180;5.812;2023-07-24T03:04:02;17.20;99.90
52849;DHT22;38714;53.180;5.812;2023-07-24T03:06:28;17.20;99.90
52849;DHT22;38714;53.180;5.812;2023-07-24T03:08:54;17.20;99.90
52849;DHT22;38714;53.180;5.812;2023-07-24T03:11:19;17.20;99.90
52849;DHT22;38714;53.180;5.812;2023-07-24T03:13:45;17.20;99.90
52849;DHT22;38714;53.180;5.812;2023-07-24T03:16:11;17.20;99.90
52849;DHT22;38714;53.180;5.812;2023-07-24T03:18:36;17.20;99.90
52849;DHT22;38714;53.180;5.812;2023-07-24T03:21:03;17.20;99.90
52849;DHT22;38714;53.180;5.812;2023-07-24T03:23:29;17.20;99.90
52849;DHT22;38714;53.180;5.812;2023-07-24T03:25:54;17.20;99.90
52849;DHT22;38714;53.180;5.812;2023-07-24T03:28:20;17.20;99.90
52849;DHT22;38714;53.180;5.812;2023-07-24T03:30:46;17.20;99.90
52849;DHT22;38714;53.180;5.812;2023-07-24T03:33:11;17.20;99.90
52849;DHT22;38714;53.180;5.812;2023-07-24T03:35:38;17.20;99.90
52849;DHT22;38714;53.180;5.812;2023-07-24T03:38:05;17.20;99.90
52849;DHT22;38714;53.180;5.812;2023-07-24T03:40:30;17.20;99.90
52849;DHT22;38714;53.180;5.812;2023-07-24T03:42:56;17.20;99.90
52849;DHT22;38714;53.180;5.812;2023-07-24T03:45:22;17.20;99.90
52849;DHT22;38714;53.180;5.812;2023-07-24T03:47:47;17.20;99.90
52849;DHT22;38714;53.180;5.812;2023-07-24T03:50:13;17.20;99.90
52849;DHT22;38714;53.180;5.812;2023-07-24T03:52:38;17.20;99.90
52849;DHT22;38714;53.180;5.812;2023-07-24T03:55:04;17.20;99.90
52849;DHT22;38714;53.180;5.812;2023-07-24T03:57:30;17.20;99.90
52849;DHT22;38714;53.180;5.812;2023-07-24T03:59:56;17.20;99.90
52849;DHT22;38714;53.180;5.812;2023-07-24T04:02:21;17.20;99.90
52849;DHT22;38714;53.180;5.812;2023-07-24T04:04:47;17.20;99.90
52849;DHT22;38714;53.180;5.812;2023-07-24T04:07:13;17.20;99.90
52849;DHT22;38714;53.180;5.812;2023-07-24T04:09:38;17.20;99.90
52849;DHT22;38714;53.180;5.812;2023-07-24T04:12:04;17.20;99.90
52849;DHT22;38714;53.180;5.812;2023-07-24T04:14:30;17.20;99.90
52849;DHT22;38714;53.180;5.812;2023-07-24T04:16:56;17.20;99.90
52849;DHT22;38714;53.180;5.812;2023-07-24T04:19:22;17.20;99.90
52849;DHT22;38714;53.180;5.812;2023-07-24T04:21:47;17.20;99.90
52849;DHT22;38714;53.180;5.812;2023-07-24T04:24:13;17.20;99.90
52849;DHT22;38714;53.180;5.812;2023-07-24T04:26:38;17.20;99.90
52849;DHT22;38714;53.180;5.812;2023-07-24T04:29:05;17.20;99.90
52849;DHT22;38714;53.180;5.812;2023-07-24T04:31:31;17.20;99.90
52849;DHT22;38714;53.180;5.812;2023-07-24T04:33:57;17.20;99.90
52849;DHT22;38714;53.180;5.812;2023-07-24T04:36:22;17.20;99.90
52849;DHT22;38714;53.180;5.812;2023-07-24T04:38:48;17.20;99.90
52849;DHT22;38714;53.180;5.812;2023-07-24T04:41:14;17.30;99.90
52849;DHT22;38714;53.180;5.812;2023-07-24T04:43:39;17.20;99.90
52849;DHT22;38714;53.180;5.812;2023-07-24T04:46:05;17.20;99.90
52849;DHT22;38714;53.180;5.812;2023-07-24T04:48:30;17.20;99.90
52849;DHT22;38714;53.180;5.812;2023-07-24T04:50:56;17.20;99.90
52849;DHT22;38714;53.180;5.812;2023-07-24T04:53:22;17.20;99.90
52849;DHT22;38714;53.180;5.812;2023-07-24T04:55:48;17.20;99.90
52849;DHT22;38714;53.180;5.812;2023-07-24T04:58:13;17.30;99.90
52849;DHT22;38714;53.180;5.812;2023-07-24T05:00:39;17.20;99.90
52849;DHT22;38714;53.180;5.812;2023-07-24T05:03:05;17.20;99.90
52849;DHT22;38714;53.180;5.812;2023-07-24T05:05:32;17.30;99.90
52849;DHT22;38714;53.180;5.812;2023-07-24T05:07:57;17.30;99.90
52849;DHT22;38714;53.180;5.812;2023-07-24T05:10:23;17.30;99.90
52849;DHT22;38714;53.180;5.812;2023-07-24T05:12:49;17.20;99.90
52849;DHT22;38714;53.180;5.812;2023-07-24T05:15:14;17.30;99.90
52849;DHT22;38714;53.180;5.812;2023-07-24T05:17:45;17.30;99.90
52849;DHT22;38714;53.180;5.812;2023-07-24T05:20:11;17.30;99.90
52849;DHT22;38714;53.180;5.812;2023-07-24T05:22:37;17.30;99.90
52849;DHT22;38714;53.180;5.812;2023-07-24T05:25:02;17.30;99.90
52849;DHT22;38714;53.180;5.812;2023-07-24T05:27:28;17.30;99.90
52849;DHT22;38714;53.180;5.812;2023-07-24T05:29:55;17.30;99.90
52849;DHT22;38714;53.180;5.812;2023-07-24T05:32:20;17.30;99.90
52849;DHT22;38714;53.180;5.812;2023-07-24T05:34:46;17.30;99.90
52849;DHT22;38714;53.180;5.812;2023-07-24T05:37:12;17.30;99.90
52849;DHT22;38714;53.180;5.812;2023-07-24T05:39:37;17.30;99.90
52849;DHT22;38714;53.180;5.812;2023-07-24T05:42:03;17.40;99.90
52849;DHT22;38714;53.180;5.812;2023-07-24T05:44:29;17.30;99.90
52849;DHT22;38714;53.180;5.812;2023-07-24T05:46:54;17.40;99.90
52849;DHT22;38714;53.180;5.812;2023-07-24T05:49:20;17.40;99.90
52849;DHT22;38714;53.180;5.812;2023-07-24T05:51:45;17.40;99.90
52849;DHT22;38714;53.180;5.812;2023-07-24T05:54:11;17.40;99.90
52849;DHT22;38714;53.180;5.812;2023-07-24T05:56:37;17.40;99.90
52849;DHT22;38714;53.180;5.812;2023-07-24T05:59:02;17.50;99.90
52849;DHT22;38714;53.180;5.812;2023-07-24T06:01:28;17.50;99.90
52849;DHT22;38714;53.180;5.812;2023-07-24T06:03:53;17.50;99.90
52849;DHT22;38714;53.180;5.812;2023-07-24T06:06:19;17.60;99.90
52849;DHT22;38714;53.180;5.812;2023-07-24T06:08:45;17.60;99.90
52849;DHT22;38714;53.180;5.812;2023-07-24T06:11:12;17.60;99.90
52849;DHT22;38714;53.180;5.812;2023-07-24T06:13:38;17.70;99.90
52849;DHT22;38714;53.180;5.812;2023-07-24T06:16:04;17.70;99.90
52849;DHT22;38714;53.180;5.812;2023-07-24T06:18:29;17.70;99.90
52849;DHT22;38714;53.180;5.812;2023-07-24T06:20:55;17.80;99.90
52849;DHT22;38714;53.180;5.812;2023-07-24T06:23:21;17.80;99.90
52849;DHT22;38714;53.180;5.812;2023-07-24T06:25:46;17.80;99.90
52849;DHT22;38714;53.180;5.812;2023-07-24T06:28:12;17.80;99.90
52849;DHT22;38714;53.180;5.812;2023-07-24T06:30:41;17.80;99.90
52849;DHT22;38714;53.180;5.812;2023-07-24T06:33:06;17.90;99.90
52849;DHT22;38714;53.180;5.812;2023-07-24T06:35:32;17.90;99.90
52849;DHT22;38714;53.180;5.812;2023-07-24T06:37:57;17.90;99.90
52849;DHT22;38714;53.180;5.812;2023-07-24T06:40:23;18.00;99.90
52849;DHT22;38714;53.180;5.812;2023-07-24T06:42:49;18.00;99.90
52849;DHT22;38714;53.180;5.812;2023-07-24T06:45:14;18.00;99.90
52849;DHT22;38714;53.180;5.812;2023-07-24T06:47:40;18.00;99.90
52849;DHT22;38714;53.180;5.812;2023-07-24T06:50:06;18.00;99.90
52849;DHT22;38714;53.180;5.812;2023-07-24T06:52:33;18.10;99.90
52849;DHT22;38714;53.180;5.812;2023-07-24T06:54:59;18.10;99.90
52849;DHT22;38714;53.180;5.812;2023-07-24T06:57:25;18.10;99.90
52849;DHT22;38714;53.180;5.812;2023-07-24T06:59:50;18.10;99.90
52849;DHT22;38714;53.180;5.812;2023-07-24T07:02:16;18.10;99.90
52849;DHT22;38714;53.180;5.812;2023-07-24T07:04:42;18.10;99.90
52849;DHT22;38714;53.180;5.812;2023-07-24T07:07:08;18.10;99.90
52849;DHT22;38714;53.180;5.812;2023-07-24T07:09:33;18.10;99.90
52849;DHT22;38714;53.180;5.812;2023-07-24T07:11:59;18.10;99.90
52849;DHT22;38714;53.180;5.812;2023-07-24T07:14:25;18.10;99.90
52849;DHT22;38714;53.180;5.812;2023-07-24T07:16:50;18.10;99.90
52849;DHT22;38714;53.180;5.812;2023-07-24T07:19:16;18.20;99.90
52849;DHT22;38714;53.180;5.812;2023-07-24T07:21:42;18.20;99.90
52849;DHT22;38714;53.180;5.812;2023-07-24T07:24:07;18.20;99.90
52849;DHT22;38714;53.180;5.812;2023-07-24T07:26:33;18.20;99.90
52849;DHT22;38714;53.180;5.812;2023-07-24T07:28:59;18.20;99.90
52849;DHT22;38714;53.180;5.812;2023-07-24T07:31:25;18.20;99.90
52849;DHT22;38714;53.180;5.812;2023-07-24T07:33:51;18.20;99.90
52849;DHT22;38714;53.180;5.812;2023-07-24T07:36:16;18.30;99.90
52849;DHT22;38714;53.180;5.812;2023-07-24T07:38:43;18.30;99.90
52849;DHT22;38714;53.180;5.812;2023-07-24T07:41:09;18.40;99.90
52849;DHT22;38714;53.180;5.812;2023-07-24T07:43:34;18.40;99.90
52849;DHT22;38714;53.180;5.812;2023-07-24T07:46:02;18.40;99.90
52849;DHT22;38714;53.180;5.812;2023-07-24T07:48:27;18.40;99.90
52849;DHT22;38714;53.180;5.812;2023-07-24T07:50:53;18.40;99.90
52849;DHT22;38714;53.180;5.812;2023-07-24T07:53:19;18.40;99.90
52849;DHT22;38714;53.180;5.812;2023-07-24T07:55:45;18.50;99.90
52849;DHT22;38714;53.180;5.812;2023-07-24T07:58:10;18.40;99.90
52849;DHT22;38714;53.180;5.812;2023-07-24T08:00:36;18.50;99.90
52849;DHT22;38714;53.180;5.812;2023-07-24T08:03:03;18.50;99.90
52849;DHT22;38714;53.180;5.812;2023-07-24T08:05:29;18.60;99.90
52849;DHT22;38714;53.180;5.812;2023-07-24T08:07:54;18.50;99.90
52849;DHT22;38714;53.180;5.812;2023-07-24T08:10:20;18.60;99.90
52849;DHT22;38714;53.180;5.812;2023-07-24T08:12:46;18.60;99.90
52849;DHT22;38714;53.180;5.812;2023-07-24T08:15:11;18.50;99.90
52849;DHT22;38714;53.180;5.812;2023-07-24T08:17:37;18.60;99.90
52849;DHT22;38714;53.180;5.812;2023-07-24T08:20:03;18.60;99.90
52849;DHT22;38714;53.180;5.812;2023-07-24T08:22:29;18.60;99.90
52849;DHT22;38714;53.180;5.812;2023-07-24T08:24:54;18.70;99.90
52849;DHT22;38714;53.180;5.812;2023-07-24T08:27:20;18.70;99.90
52849;DHT22;38714;53.180;5.812;2023-07-24T08:29:45;18.80;99.90
52849;DHT22;38714;53.180;5.812;2023-07-24T08:32:11;18.80;99.90
52849;DHT22;38714;53.180;5.812;2023-07-24T08:34:37;18.80;99.90
52849;DHT22;38714;53.180;5.812;2023-07-24T08:37:02;18.80;99.90
52849;DHT22;38714;53.180;5.812;2023-07-24T08:39:28;18.80;99.90
52849;DHT22;38714;53.180;5.812;2023-07-24T08:41:53;18.80;99.90
52849;DHT22;38714;53.180;5.812;2023-07-24T08:44:20;18.70;99.90
52849;DHT22;38714;53.180;5.812;2023-07-24T08:46:47;18.70;99.90
52849;DHT22;38714;53.180;5.812;2023-07-24T08:49:15;18.60;99.90
52849;DHT22;38714;53.180;5.812;2023-07-24T08:51:41;18.60;99.90
52849;DHT22;38714;53.180;5.812;2023-07-24T08:54:08;18.50;99.90
52849;DHT22;38714;53.180;5.812;2023-07-24T08:56:36;18.40;99.90
52849;DHT22;38714;53.180;5.812;2023-07-24T08:59:03;18.30;99.90
52849;DHT22;38714;53.180;5.812;2023-07-24T09:01:28;18.20;99.90
52849;DHT22;38714;53.180;5.812;2023-07-24T09:03:54;18.20;99.90
52849;DHT22;38714;53.180;5.812;2023-07-24T09:06:19;18.20;99.90
52849;DHT22;38714;53.180;5.812;2023-07-24T09:08:45;18.20;99.90
52849;DHT22;38714;53.180;5.812;2023-07-24T09:11:13;18.20;99.90
52849;DHT22;38714;53.180;5.812;2023-07-24T09:13:42;18.30;99.90
52849;DHT22;38714;53.180;5.812;2023-07-24T09:16:08;18.30;99.90
52849;DHT22;38714;53.180;5.812;2023-07-24T09:18:41;18.40;99.90
52849;DHT22;38714;53.180;5.812;2023-07-24T09:21:07;18.40;99.90
52849;DHT22;38714;53.180;5.812;2023-07-24T09:23:33;18.40;99.90
52849;DHT22;38714;53.180;5.812;2023-07-24T09:25:58;18.30;99.90
52849;DHT22;38714;53.180;5.812;2023-07-24T09:28:24;18.30;99.90
52849;DHT22;38714;53.180;5.812;2023-07-24T09:30:55;18.30;99.90
52849;DHT22;38714;53.180;5.812;2023-07-24T09:33:38;18.30;99.90
52849;DHT22;38714;53.180;5.812;2023-07-24T09:36:05;18.30;99.90
52849;DHT22;38714;53.180;5.812;2023-07-24T09:38:33;18.30;99.90
52849;DHT22;38714;53.180;5.812;2023-07-24T09:41:01;18.40;99.90
52849;DHT22;38714;53.180;5.812;2023-07-24T09:43:28;18.40;99.90
52849;DHT22;38714;53.180;5.812;2023-07-24T09:45:54;18.50;99.90
52849;DHT22;38714;53.180;5.812;2023-07-24T09:48:21;18.60;99.90
52849;DHT22;38714;53.180;5.812;2023-07-24T09:50:49;18.60;99.90
52849;DHT22;38714;53.180;5.812;2023-07-24T09:56:09;18.70;99.90
52849;DHT22;38714;53.180;5.812;2023-07-24T09:58:39;18.80;99.90
52849;DHT22;38714;53.180;5.812;2023-07-24T10:01:10;18.80;99.90
52849;DHT22;38714;53.180;5.812;2023-07-24T10:03:39;18.80;99.90
52849;DHT22;38714;53.180;5.812;2023-07-24T10:06:05;18.80;99.90
52849;DHT22;38714;53.180;5.812;2023-07-24T10:08:31;18.90;99.90
52849;DHT22;38714;53.180;5.812;2023-07-24T10:11:00;18.90;99.90
52849;DHT22;38714;53.180;5.812;2023-07-24T10:13:27;18.80;99.90
52849;DHT22;38714;53.180;5.812;2023-07-24T10:15:52;18.90;99.90
52849;DHT22;38714;53.180;5.812;2023-07-24T10:18:28;18.90;99.90
52849;DHT22;38714;53.180;5.812;2023-07-24T10:21:04;19.00;99.90
52849;DHT22;38714;53.180;5.812;2023-07-24T10:23:30;19.00;99.90
52849;DHT22;38714;53.180;5.812;2023-07-24T10:26:05;19.10;99.90
52849;DHT22;38714;53.180;5.812;2023-07-24T10:28:36;19.10;99.90
52849;DHT22;38714;53.180;5.812;2023-07-24T10:31:07;19.10;99.90
52849;DHT22;38714;53.180;5.812;2023-07-24T10:33:36;19.10;99.90
52849;DHT22;38714;53.180;5.812;2023-07-24T10:36:08;19.10;99.90
52849;DHT22;38714;53.180;5.812;2023-07-24T10:38:42;19.10;99.90
52849;DHT22;38714;53.180;5.812;2023-07-24T10:41:09;19.10;99.90
52849;DHT22;38714;53.180;5.812;2023-07-24T10:43:49;19.10;99.90
52849;DHT22;38714;53.180;5.812;2023-07-24T10:46:17;19.00;99.90
52849;DHT22;38714;53.180;5.812;2023-07-24T10:48:45;19.10;99.90
52849;DHT22;38714;53.180;5.812;2023-07-24T10:51:12;19.10;99.90
52849;DHT22;38714;53.180;5.812;2023-07-24T10:53:43;19.00;99.90
52849;DHT22;38714;53.180;5.812;2023-07-24T10:56:09;19.10;99.90
52849;DHT22;38714;53.180;5.812;2023-07-24T10:58:35;19.00;99.90
52849;DHT22;38714;53.180;5.812;2023-07-24T11:01:03;19.00;99.90
52849;DHT22;38714;53.180;5.812;2023-07-24T11:03:30;19.00;99.90
52849;DHT22;38714;53.180;5.812;2023-07-24T11:05:57;19.00;99.90
52849;DHT22;38714;53.180;5.812;2023-07-24T11:08:24;19.10;99.90
52849;DHT22;38714;53.180;5.812;2023-07-24T11:10:54;19.20;99.90
52849;DHT22;38714;53.180;5.812;2023-07-24T11:13:22;19.20;99.90
52849;DHT22;38714;53.180;5.812;2023-07-24T11:15:49;19.20;99.90
52849;DHT22;38714;53.180;5.812;2023-07-24T11:18:16;19.20;99.90
52849;DHT22;38714;53.180;5.812;2023-07-24T11:20:53;19.30;99.90
52849;DHT22;38714;53.180;5.812;2023-07-24T11:23:19;19.40;99.90
52849;DHT22;38714;53.180;5.812;2023-07-24T11:25:46;19.40;99.90
52849;DHT22;38714;53.180;5.812;2023-07-24T11:28:13;19.50;99.90
52849;DHT22;38714;53.180;5.812;2023-07-24T11:30:40;19.50;99.90
52849;DHT22;38714;53.180;5.812;2023-07-24T11:33:08;19.50;99.90
52849;DHT22;38714;53.180;5.812;2023-07-24T11:35:35;19.60;99.90
52849;DHT22;38714;53.180;5.812;2023-07-24T11:38:05;19.60;99.90
52849;DHT22;38714;53.180;5.812;2023-07-24T11:40:38;19.60;99.90
52849;DHT22;38714;53.180;5.812;2023-07-24T11:43:05;19.70;99.90
52849;DHT22;38714;53.180;5.812;2023-07-24T11:45:31;19.80;99.90
52849;DHT22;38714;53.180;5.812;2023-07-24T11:48:09;19.80;99.90
52849;DHT22;38714;53.180;5.812;2023-07-24T11:50:45;19.90;99.90
52849;DHT22;38714;53.180;5.812;2023-07-24T11:53:27;19.90;99.90
52849;DHT22;38714;53.180;5.812;2023-07-24T11:55:54;19.90;99.90
52849;DHT22;38714;53.180;5.812;2023-07-24T11:58:20;19.90;99.90
52849;DHT22;38714;53.180;5.812;2023-07-24T12:00:47;20.00;99.90
52849;DHT22;38714;53.180;5.812;2023-07-24T12:03:19;19.90;99.90
52849;DHT22;38714;53.180;5.812;2023-07-24T12:05:45;19.90;99.90
52849;DHT22;38714;53.180;5.812;2023-07-24T12:08:11;20.00;99.90
52849;DHT22;38714;53.180;5.812;2023-07-24T12:10:40;19.90;99.90
52849;DHT22;38714;53.180;5.812;2023-07-24T12:13:06;20.00;99.90
52849;DHT22;38714;53.180;5.812;2023-07-24T12:15:32;20.00;99.90
52849;DHT22;38714;53.180;5.812;2023-07-24T12:18:01;19.90;99.90
52849;DHT22;38714;53.180;5.812;2023-07-24T12:20:27;19.90;99.90
52849;DHT22;38714;53.180;5.812;2023-07-24T12:22:53;19.90;99.90
52849;DHT22;38714;53.180;5.812;2023-07-24T12:25:19;19.90;99.90
52849;DHT22;38714;53.180;5.812;2023-07-24T12:27:46;19.90;99.90
52849;DHT22;38714;53.180;5.812;2023-07-24T12:30:12;19.80;99.90
52849;DHT22;38714;53.180;5.812;2023-07-24T12:32:37;19.70;99.90
52849;DHT22;38714;53.180;5.812;2023-07-24T12:35:03;19.60;99.90
52849;DHT22;38714;53.180;5.812;2023-07-24T12:37:30;19.70;99.90
52849;DHT22;38714;53.180;5.812;2023-07-24T12:39:56;19.70;99.90
52849;DHT22;38714;53.180;5.812;2023-07-24T12:42:22;19.60;99.90
52849;DHT22;38714;53.180;5.812;2023-07-24T12:44:49;19.50;99.90
52849;DHT22;38714;53.180;5.812;2023-07-24T12:47:15;19.40;99.90
52849;DHT22;38714;53.180;5.812;2023-07-24T12:49:40;19.40;99.90
52849;DHT22;38714;53.180;5.812;2023-07-24T12:52:07;19.30;99.90
52849;DHT22;38714;53.180;5.812;2023-07-24T12:54:33;19.30;99.90
52849;DHT22;38714;53.180;5.812;2023-07-24T12:56:59;19.20;99.90
52849;DHT22;38714;53.180;5.812;2023-07-24T12:59:25;19.10;99.90
52849;DHT22;38714;53.180;5.812;2023-07-24T13:01:51;19.10;99.90
52849;DHT22;38714;53.180;5.812;2023-07-24T13:04:16;19.00;99.90
52849;DHT22;38714;53.180;5.812;2023-07-24T13:06:42;19.00;99.90
52849;DHT22;38714;53.180;5.812;2023-07-24T13:09:08;18.90;99.90
52849;DHT22;38714;53.180;5.812;2023-07-24T13:11:33;18.90;99.90
52849;DHT22;38714;53.180;5.812;2023-07-24T13:13:59;18.90;99.90
52849;DHT22;38714;53.180;5.812;2023-07-24T13:16:25;18.90;99.90
52849;DHT22;38714;53.180;5.812;2023-07-24T13:18:50;18.80;99.90
52849;DHT22;38714;53.180;5.812;2023-07-24T13:21:16;18.80;99.90
52849;DHT22;38714;53.180;5.812;2023-07-24T13:23:42;18.80;99.90
52849;DHT22;38714;53.180;5.812;2023-07-24T13:26:08;18.80;99.90
52849;DHT22;38714;53.180;5.812;2023-07-24T13:28:36;18.80;99.90
52849;DHT22;38714;53.180;5.812;2023-07-24T13:31:21;18.70;99.90
52849;DHT22;38714;53.180;5.812;2023-07-24T13:33:48;18.70;99.90
52849;DHT22;38714;53.180;5.812;2023-07-24T13:36:13;18.60;99.90
52849;DHT22;38714;53.180;5.812;2023-07-24T13:38:40;18.50;99.90
52849;DHT22;38714;53.180;5.812;2023-07-24T13:41:06;18.40;99.90
52849;DHT22;38714;53.180;5.812;2023-07-24T13:43:32;18.30;99.90
52849;DHT22;38714;53.180;5.812;2023-07-24T13:45:58;18.20;99.90
52849;DHT22;38714;53.180;5.812;2023-07-24T13:48:24;18.10;99.90
52849;DHT22;38714;53.180;5.812;2023-07-24T13:50:50;18.10;99.90
52849;DHT22;38714;53.180;5.812;2023-07-24T13:53:16;18.00;99.90
52849;DHT22;38714;53.180;5.812;2023-07-24T13:55:42;18.00;99.90
52849;DHT22;38714;53.180;5.812;2023-07-24T13:58:08;17.90;99.90
52849;DHT22;38714;53.180;5.812;2023-07-24T14:00:34;17.80;99.90
52849;DHT22;38714;53.180;5.812;2023-07-24T14:03:00;17.80;99.90
52849;DHT22;38714;53.180;5.812;2023-07-24T14:05:25;17.70;99.90
52849;DHT22;38714;53.180;5.812;2023-07-24T14:07:51;17.60;99.90
52849;DHT22;38714;53.180;5.812;2023-07-24T14:10:17;17.70;99.90
52849;DHT22;38714;53.180;5.812;2023-07-24T14:12:42;17.60;99.90
52849;DHT22;38714;53.180;5.812;2023-07-24T14:15:08;17.50;99.90
52849;DHT22;38714;53.180;5.812;2023-07-24T14:17:34;17.50;99.90
52849;DHT22;38714;53.180;5.812;2023-07-24T14:20:03;17.40;99.90
52849;DHT22;38714;53.180;5.812;2023-07-24T14:22:29;17.40;99.90
52849;DHT22;38714;53.180;5.812;2023-07-24T14:24:54;17.40;99.90
52849;DHT22;38714;53.180;5.812;2023-07-24T14:27:20;17.40;99.90
52849;DHT22;38714;53.180;5.812;2023-07-24T14:29:46;17.40;99.90
52849;DHT22;38714;53.180;5.812;2023-07-24T14:32:11;17.40;99.90
52849;DHT22;38714;53.180;5.812;2023-07-24T14:34:37;17.40;99.90
52849;DHT22;38714;53.180;5.812;2023-07-24T14:37:03;17.40;99.90
52849;DHT22;38714;53.180;5.812;2023-07-24T14:39:29;17.40;99.90
52849;DHT22;38714;53.180;5.812;2023-07-24T14:41:54;17.40;99.90
52849;DHT22;38714;53.180;5.812;2023-07-24T14:44:20;17.40;99.90
52849;DHT22;38714;53.180;5.812;2023-07-24T14:46:46;17.30;99.90
52849;DHT22;38714;53.180;5.812;2023-07-24T14:49:11;17.40;99.90
52849;DHT22;38714;53.180;5.812;2023-07-24T14:51:37;17.30;99.90
52849;DHT22;38714;53.180;5.812;2023-07-24T14:54:03;17.40;99.90
52849;DHT22;38714;53.180;5.812;2023-07-24T14:56:28;17.30;99.90
52849;DHT22;38714;53.180;5.812;2023-07-24T14:58:54;17.30;99.90
52849;DHT22;38714;53.180;5.812;2023-07-24T15:01:20;17.30;99.90
52849;DHT22;38714;53.180;5.812;2023-07-24T15:03:45;17.20;99.90
52849;DHT22;38714;53.180;5.812;2023-07-24T15:06:11;17.20;99.90
52849;DHT22;38714;53.180;5.812;2023-07-24T15:08:36;17.10;99.90
52849;DHT22;38714;53.180;5.812;2023-07-24T15:11:03;17.10;99.90
52849;DHT22;38714;53.180;5.812;2023-07-24T15:13:28;17.00;99.90
52849;DHT22;38714;53.180;5.812;2023-07-24T15:15:54;17.00;99.90
52849;DHT22;38714;53.180;5.812;2023-07-24T15:18:20;17.00;99.90
52849;DHT22;38714;53.180;5.812;2023-07-24T15:20:45;17.00;99.90
52849;DHT22;38714;53.180;5.812;2023-07-24T15:23:11;17.00;99.90
52849;DHT22;38714;53.180;5.812;2023-07-24T15:25:38;17.00;99.90
52849;DHT22;38714;53.180;5.812;2023-07-24T15:28:04;17.00;99.90